sensor_id;sensor_type;location;lat;lon;timestamp;temperature;humidity
45207;DHT22;30950;53.086;21.576;2024-02-21T00:01:16;6.60;99.90
45207;DHT22;30950;53.086;21.576;2024-02-21T00:03:44;5.30;99.90
45207;DHT22;30950;53.086;21.576;2024-02-21T00:06:12;5.30;99.90
45207;DHT22;30950;53.086;21.576;2024-02-21T00:08:39;5.30;99.90
45207;DHT22;30950;53.086;21.576;2024-02-21T00:11:06;5.10;99.90
45207;DHT22;30950;53.086;21.576;2024-02-21T00:13:33;5.20;99.90
45207;DHT22;30950;53.086;21.576;2024-02-21T00:16:01;5.30;99.90
45207;DHT22;30950;53.086;21.576;2024-02-21T00:18:28;5.20;99.90
45207;DHT22;30950;53.086;21.576;2024-02-21T00:20:57;5.20;99.90
45207;DHT22;30950;53.086;21.576;2024-02-21T00:23:24;5.20;99.90
45207;DHT22;30950;53.086;21.576;2024-02-21T00:25:51;5.20;99.90
45207;DHT22;30950;53.086;21.576;2024-02-21T00:28:18;5.20;99.90
45207;DHT22;30950;53.086;21.576;2024-02-21T00:30:46;5.20;99.90
45207;DHT22;30950;53.086;21.576;2024-02-21T00:33:14;5.20;99.90
45207;DHT22;30950;53.086;21.576;2024-02-21T00:35:42;5.20;99.90
45207;DHT22;30950;53.086;21.576;2024-02-21T00:38:09;5.20;99.90
45207;DHT22;30950;53.086;21.576;2024-02-21T00:40:36;5.10;99.90
45207;DHT22;30950;53.086;21.576;2024-02-21T00:43:04;5.10;99.90
45207;DHT22;30950;53.086;21.576;2024-02-21T00:45:31;5.10;99.90
45207;DHT22;30950;53.086;21.576;2024-02-21T00:47:58;5.10;99.90
45207;DHT22;30950;53.086;21.576;2024-02-21T00:50:25;5.10;99.90
45207;DHT22;30950;53.086;21.576;2024-02-21T00:52:53;5.10;99.90
45207;DHT22;30950;53.086;21.576;2024-02-21T00:55:20;5.10;99.90
45207;DHT22;30950;53.086;21.576;2024-02-21T00:57:47;5.10;99.90
45207;DHT22;30950;53.086;21.576;2024-02-21T01:00:15;5.10;99.90
45207;DHT22;30950;53.086;21.576;2024-02-21T01:02:42;5.10;99.90
45207;DHT22;30950;53.086;21.576;2024-02-21T01:05:10;5.10;99.90
45207;DHT22;30950;53.086;21.576;2024-02-21T01:07:38;5.10;99.90
45207;DHT22;30950;53.086;21.576;2024-02-21T01:10:05;5.00;99.90
45207;DHT22;30950;53.086;21.576;2024-02-21T01:12:33;5.10;99.90
45207;DHT22;30950;53.086;21.576;2024-02-21T01:15:00;5.00;99.90
45207;DHT22;30950;53.086;21.576;2024-02-21T01:17:27;5.00;99.90
45207;DHT22;30950;53.086;21.576;2024-02-21T01:19:54;5.00;99.90
45207;DHT22;30950;53.086;21.576;2024-02-21T01:22:22;5.10;99.90
45207;DHT22;30950;53.086;21.576;2024-02-21T01:24:49;5.00;99.90
45207;DHT22;30950;53.086;21.576;2024-02-21T01:27:16;5.00;99.90
45207;DHT22;30950;53.086;21.576;2024-02-21T01:29:45;5.00;99.90
45207;DHT22;30950;53.086;21.576;2024-02-21T01:32:13;5.00;99.90
45207;DHT22;30950;53.086;21.576;2024-02-21T01:34:40;5.00;99.90
45207;DHT22;30950;53.086;21.576;2024-02-21T01:37:08;5.00;99.90
45207;DHT22;30950;53.086;21.576;2024-02-21T01:39:35;5.00;99.90
45207;DHT22;30950;53.086;21.576;2024-02-21T01:42:02;4.90;99.90
45207;DHT22;30950;53.086;21.576;2024-02-21T01:44:30;4.90;99.90
45207;DHT22;30950;53.086;21.576;2024-02-21T01:46:57;5.00;99.90
45207;DHT22;30950;53.086;21.576;2024-02-21T01:49:24;5.00;99.90
45207;DHT22;30950;53.086;21.576;2024-02-21T01:51:52;5.10;99.90
45207;DHT22;30950;53.086;21.576;2024-02-21T01:54:20;5.00;99.90
45207;DHT22;30950;53.086;21.576;2024-02-21T01:56:47;5.00;99.90
45207;DHT22;30950;53.086;21.576;2024-02-21T01:59:15;5.00;99.90
45207;DHT22;30950;53.086;21.576;2024-02-21T02:01:42;5.00;99.90
45207;DHT22;30950;53.086;21.576;2024-02-21T02:04:10;5.00;99.90
45207;DHT22;30950;53.086;21.576;2024-02-21T02:06:38;5.00;99.90
45207;DHT22;30950;53.086;21.576;2024-02-21T02:09:05;5.00;99.90
45207;DHT22;30950;53.086;21.576;2024-02-21T02:11:33;5.00;99.90
45207;DHT22;30950;53.086;21.576;2024-02-21T02:14:00;5.00;99.90
45207;DHT22;30950;53.086;21.576;2024-02-21T02:16:27;5.00;99.90
45207;DHT22;30950;53.086;21.576;2024-02-21T02:18:55;5.00;99.90
45207;DHT22;30950;53.086;21.576;2024-02-21T02:21:45;5.00;99.90
45207;DHT22;30950;53.086;21.576;2024-02-21T02:24:10;5.00;99.90
45207;DHT22;30950;53.086;21.576;2024-02-21T02:26:37;5.00;99.90
45207;DHT22;30950;53.086;21.576;2024-02-21T02:29:04;5.00;99.90
45207;DHT22;30950;53.086;21.576;2024-02-21T02:31:32;5.00;99.90
45207;DHT22;30950;53.086;21.576;2024-02-21T02:33:59;5.00;99.90
45207;DHT22;30950;53.086;21.576;2024-02-21T02:36:26;6.00;99.90
45207;DHT22;30950;53.086;21.576;2024-02-21T02:38:54;5.00;99.90
45207;DHT22;30950;53.086;21.576;2024-02-21T02:41:21;5.00;99.90
45207;DHT22;30950;53.086;21.576;2024-02-21T02:43:48;4.90;99.90
45207;DHT22;30950;53.086;21.576;2024-02-21T02:46:15;5.00;99.90
45207;DHT22;30950;53.086;21.576;2024-02-21T02:48:43;5.00;99.90
45207;DHT22;30950;53.086;21.576;2024-02-21T02:51:10;5.00;99.90
45207;DHT22;30950;53.086;21.576;2024-02-21T02:53:37;5.00;99.90
45207;DHT22;30950;53.086;21.576;2024-02-21T02:56:05;5.00;99.90
45207;DHT22;30950;53.086;21.576;2024-02-21T02:58:32;5.00;99.90
45207;DHT22;30950;53.086;21.576;2024-02-21T03:00:59;5.00;99.90
45207;DHT22;30950;53.086;21.576;2024-02-21T03:03:27;5.10;99.90
45207;DHT22;30950;53.086;21.576;2024-02-21T03:05:54;5.10;99.90
45207;DHT22;30950;53.086;21.576;2024-02-21T03:08:21;5.00;99.90
45207;DHT22;30950;53.086;21.576;2024-02-21T03:10:49;5.00;99.90
45207;DHT22;30950;53.086;21.576;2024-02-21T03:13:17;5.00;99.90
45207;DHT22;30950;53.086;21.576;2024-02-21T03:15:44;5.10;99.90
45207;DHT22;30950;53.086;21.576;2024-02-21T03:18:11;5.00;99.90
45207;DHT22;30950;53.086;21.576;2024-02-21T03:20:38;5.10;99.90
45207;DHT22;30950;53.086;21.576;2024-02-21T03:23:06;5.00;99.90
45207;DHT22;30950;53.086;21.576;2024-02-21T03:25:33;5.00;99.90
45207;DHT22;30950;53.086;21.576;2024-02-21T03:28:00;5.00;99.90
45207;DHT22;30950;53.086;21.576;2024-02-21T03:30:28;5.00;99.90
45207;DHT22;30950;53.086;21.576;2024-02-21T03:32:56;5.00;99.90
45207;DHT22;30950;53.086;21.576;2024-02-21T03:35:23;5.00;99.90
45207;DHT22;30950;53.086;21.576;2024-02-21T03:37:53;5.00;99.90
45207;DHT22;30950;53.086;21.576;2024-02-21T03:40:20;5.00;99.90
45207;DHT22;30950;53.086;21.576;2024-02-21T03:42:48;5.00;99.90
45207;DHT22;30950;53.086;21.576;2024-02-21T03:45:15;5.10;99.90
45207;DHT22;30950;53.086;21.576;2024-02-21T03:47:42;5.00;99.90
45207;DHT22;30950;53.086;21.576;2024-02-21T03:50:10;5.00;99.90
45207;DHT22;30950;53.086;21.576;2024-02-21T03:52:37;5.00;99.90
45207;DHT22;30950;53.086;21.576;2024-02-21T03:55:04;5.00;99.90
45207;DHT22;30950;53.086;21.576;2024-02-21T03:57:32;5.00;99.90
45207;DHT22;30950;53.086;21.576;2024-02-21T03:59:59;4.90;99.90
45207;DHT22;30950;53.086;21.576;2024-02-21T04:02:26;5.00;99.90
45207;DHT22;30950;53.086;21.576;2024-02-21T04:04:53;4.90;99.90
45207;DHT22;30950;53.086;21.576;2024-02-21T04:07:21;5.00;99.90
45207;DHT22;30950;53.086;21.576;2024-02-21T04:09:48;5.00;99.90
45207;DHT22;30950;53.086;21.576;2024-02-21T04:12:15;4.90;99.90
45207;DHT22;30950;53.086;21.576;2024-02-21T04:14:42;5.00;99.90
45207;DHT22;30950;53.086;21.576;2024-02-21T04:17:13;5.00;99.90
45207;DHT22;30950;53.086;21.576;2024-02-21T04:19:40;5.00;99.90
45207;DHT22;30950;53.086;21.576;2024-02-21T04:22:07;5.00;99.90
45207;DHT22;30950;53.086;21.576;2024-02-21T04:24:35;5.00;99.90
45207;DHT22;30950;53.086;21.576;2024-02-21T04:27:02;5.00;99.90
45207;DHT22;30950;53.086;21.576;2024-02-21T04:29:29;5.10;99.90
45207;DHT22;30950;53.086;21.576;2024-02-21T04:31:57;5.10;99.90
45207;DHT22;30950;53.086;21.576;2024-02-21T04:34:24;5.00;99.90
45207;DHT22;30950;53.086;21.576;2024-02-21T04:36:51;5.00;99.90
45207;DHT22;30950;53.086;21.576;2024-02-21T04:39:18;5.10;99.90
45207;DHT22;30950;53.086;21.576;2024-02-21T04:41:46;5.00;99.90
45207;DHT22;30950;53.086;21.576;2024-02-21T04:44:13;5.10;99.90
45207;DHT22;30950;53.086;21.576;2024-02-21T04:46:41;5.00;99.90
45207;DHT22;30950;53.086;21.576;2024-02-21T04:49:09;5.10;99.90
45207;DHT22;30950;53.086;21.576;2024-02-21T04:51:36;5.10;99.90
45207;DHT22;30950;53.086;21.576;2024-02-21T04:54:03;3.80;99.90
45207;DHT22;30950;53.086;21.576;2024-02-21T04:56:31;5.10;99.90
45207;DHT22;30950;53.086;21.576;2024-02-21T04:58:58;5.10;99.90
45207;DHT22;30950;53.086;21.576;2024-02-21T05:01:26;5.10;99.90
45207;DHT22;30950;53.086;21.576;2024-02-21T05:03:53;5.10;99.90
45207;DHT22;30950;53.086;21.576;2024-02-21T05:06:20;5.10;99.90
45207;DHT22;30950;53.086;21.576;2024-02-21T05:08:47;5.10;99.90
45207;DHT22;30950;53.086;21.576;2024-02-21T05:11:14;5.10;99.90
45207;DHT22;30950;53.086;21.576;2024-02-21T05:13:42;5.00;99.90
45207;DHT22;30950;53.086;21.576;2024-02-21T05:16:09;5.10;99.90
45207;DHT22;30950;53.086;21.576;2024-02-21T05:18:36;5.10;99.90
45207;DHT22;30950;53.086;21.576;2024-02-21T05:21:04;5.10;99.90
45207;DHT22;30950;53.086;21.576;2024-02-21T05:23:31;5.10;99.90
45207;DHT22;30950;53.086;21.576;2024-02-21T05:25:58;5.10;99.90
45207;DHT22;30950;53.086;21.576;2024-02-21T05:28:26;5.10;99.90
45207;DHT22;30950;53.086;21.576;2024-02-21T05:30:53;5.10;99.90
45207;DHT22;30950;53.086;21.576;2024-02-21T05:33:20;5.10;99.90
45207;DHT22;30950;53.086;21.576;2024-02-21T05:35:49;5.10;99.90
45207;DHT22;30950;53.086;21.576;2024-02-21T05:38:16;5.10;99.90
45207;DHT22;30950;53.086;21.576;2024-02-21T05:40:44;5.10;99.90
45207;DHT22;30950;53.086;21.576;2024-02-21T05:43:11;5.20;99.90
45207;DHT22;30950;53.086;21.576;2024-02-21T05:45:39;5.10;99.90
45207;DHT22;30950;53.086;21.576;2024-02-21T05:48:06;5.10;99.90
45207;DHT22;30950;53.086;21.576;2024-02-21T05:50:33;5.20;99.90
45207;DHT22;30950;53.086;21.576;2024-02-21T05:53:00;5.20;99.90
45207;DHT22;30950;53.086;21.576;2024-02-21T05:55:28;5.20;99.90
45207;DHT22;30950;53.086;21.576;2024-02-21T05:57:55;5.20;99.90
45207;DHT22;30950;53.086;21.576;2024-02-21T06:00:23;5.20;99.90
45207;DHT22;30950;53.086;21.576;2024-02-21T06:02:50;5.30;99.90
45207;DHT22;30950;53.086;21.576;2024-02-21T06:05:17;5.30;99.90
45207;DHT22;30950;53.086;21.576;2024-02-21T06:07:44;5.30;99.90
45207;DHT22;30950;53.086;21.576;2024-02-21T06:10:12;5.30;99.90
45207;DHT22;30950;53.086;21.576;2024-02-21T06:12:39;5.30;99.90
45207;DHT22;30950;53.086;21.576;2024-02-21T06:15:06;5.40;99.90
45207;DHT22;30950;53.086;21.576;2024-02-21T06:17:33;5.30;99.90
45207;DHT22;30950;53.086;21.576;2024-02-21T06:20:01;5.30;99.90
45207;DHT22;30950;53.086;21.576;2024-02-21T06:22:29;5.40;99.90
45207;DHT22;30950;53.086;21.576;2024-02-21T06:24:57;5.40;99.90
45207;DHT22;30950;53.086;21.576;2024-02-21T06:27:24;5.40;99.90
45207;DHT22;30950;53.086;21.576;2024-02-21T06:29:51;5.40;99.90
45207;DHT22;30950;53.086;21.576;2024-02-21T06:32:18;5.40;99.90
45207;DHT22;30950;53.086;21.576;2024-02-21T06:34:46;5.40;99.90
45207;DHT22;30950;53.086;21.576;2024-02-21T06:37:13;5.40;99.90
45207;DHT22;30950;53.086;21.576;2024-02-21T06:39:41;5.50;99.90
45207;DHT22;30950;53.086;21.576;2024-02-21T06:42:08;5.50;99.90
45207;DHT22;30950;53.086;21.576;2024-02-21T06:44:35;5.60;99.90
45207;DHT22;30950;53.086;21.576;2024-02-21T06:47:07;5.60;99.90
45207;DHT22;30950;53.086;21.576;2024-02-21T06:49:35;5.60;99.90
45207;DHT22;30950;53.086;21.576;2024-02-21T06:52:06;5.60;99.90
45207;DHT22;30950;53.086;21.576;2024-02-21T06:54:33;5.60;99.90
45207;DHT22;30950;53.086;21.576;2024-02-21T06:57:00;5.60;99.90
45207;DHT22;30950;53.086;21.576;2024-02-21T06:59:28;5.60;99.90
45207;DHT22;30950;53.086;21.576;2024-02-21T07:01:55;5.60;99.90
45207;DHT22;30950;53.086;21.576;2024-02-21T07:04:23;5.60;99.90
45207;DHT22;30950;53.086;21.576;2024-02-21T07:06:50;5.70;99.90
45207;DHT22;30950;53.086;21.576;2024-02-21T07:09:18;5.70;99.90
45207;DHT22;30950;53.086;21.576;2024-02-21T07:11:45;5.70;99.90
45207;DHT22;30950;53.086;21.576;2024-02-21T07:14:14;5.70;99.90
45207;DHT22;30950;53.086;21.576;2024-02-21T07:16:41;5.70;99.90
45207;DHT22;30950;53.086;21.576;2024-02-21T07:19:08;5.70;99.90
45207;DHT22;30950;53.086;21.576;2024-02-21T07:21:35;5.70;99.90
45207;DHT22;30950;53.086;21.576;2024-02-21T07:24:05;5.70;99.90
45207;DHT22;30950;53.086;21.576;2024-02-21T07:26:32;5.70;99.90
45207;DHT22;30950;53.086;21.576;2024-02-21T07:28:59;5.70;99.90
45207;DHT22;30950;53.086;21.576;2024-02-21T07:31:27;5.70;99.90
45207;DHT22;30950;53.086;21.576;2024-02-21T07:33:54;5.70;99.90
45207;DHT22;30950;53.086;21.576;2024-02-21T07:36:30;5.70;99.90
45207;DHT22;30950;53.086;21.576;2024-02-21T07:38:58;5.70;99.90
45207;DHT22;30950;53.086;21.576;2024-02-21T07:41:25;5.80;99.90
45207;DHT22;30950;53.086;21.576;2024-02-21T07:43:53;5.80;99.90
45207;DHT22;30950;53.086;21.576;2024-02-21T07:46:20;5.80;99.90
45207;DHT22;30950;53.086;21.576;2024-02-21T07:48:48;5.80;99.90
45207;DHT22;30950;53.086;21.576;2024-02-21T07:51:15;5.70;99.90
45207;DHT22;30950;53.086;21.576;2024-02-21T07:53:46;5.80;99.90
45207;DHT22;30950;53.086;21.576;2024-02-21T07:56:14;5.80;99.90
45207;DHT22;30950;53.086;21.576;2024-02-21T07:58:42;5.80;99.90
45207;DHT22;30950;53.086;21.576;2024-02-21T08:01:09;5.80;99.90
45207;DHT22;30950;53.086;21.576;2024-02-21T08:03:37;5.90;99.90
45207;DHT22;30950;53.086;21.576;2024-02-21T08:06:04;5.80;99.90
45207;DHT22;30950;53.086;21.576;2024-02-21T08:08:32;5.90;99.90
45207;DHT22;30950;53.086;21.576;2024-02-21T08:10:59;5.80;99.90
45207;DHT22;30950;53.086;21.576;2024-02-21T08:13:26;5.90;99.90
45207;DHT22;30950;53.086;21.576;2024-02-21T08:15:55;5.90;99.90
45207;DHT22;30950;53.086;21.576;2024-02-21T08:18:24;5.80;99.90
45207;DHT22;30950;53.086;21.576;2024-02-21T08:20:51;5.90;99.90
45207;DHT22;30950;53.086;21.576;2024-02-21T08:23:19;5.90;99.90
45207;DHT22;30950;53.086;21.576;2024-02-21T08:25:46;5.90;99.90
45207;DHT22;30950;53.086;21.576;2024-02-21T08:28:13;6.00;99.90
45207;DHT22;30950;53.086;21.576;2024-02-21T08:30:40;6.00;99.90
45207;DHT22;30950;53.086;21.576;2024-02-21T08:33:11;6.10;99.90
45207;DHT22;30950;53.086;21.576;2024-02-21T08:35:38;6.10;99.90
45207;DHT22;30950;53.086;21.576;2024-02-21T08:38:08;6.20;99.90
45207;DHT22;30950;53.086;21.576;2024-02-21T08:40:35;6.30;99.90
45207;DHT22;30950;53.086;21.576;2024-02-21T08:43:04;6.30;99.90
45207;DHT22;30950;53.086;21.576;2024-02-21T08:45:31;6.40;99.90
45207;DHT22;30950;53.086;21.576;2024-02-21T08:47:58;6.40;99.90
45207;DHT22;30950;53.086;21.576;2024-02-21T08:50:25;6.40;99.90
45207;DHT22;30950;53.086;21.576;2024-02-21T08:52:56;6.40;99.90
45207;DHT22;30950;53.086;21.576;2024-02-21T08:55:23;6.50;99.90
45207;DHT22;30950;53.086;21.576;2024-02-21T08:57:51;6.50;99.90
45207;DHT22;30950;53.086;21.576;2024-02-21T09:00:18;6.50;99.90
45207;DHT22;30950;53.086;21.576;2024-02-21T09:02:50;6.50;99.90
45207;DHT22;30950;53.086;21.576;2024-02-21T09:05:18;6.60;99.90
45207;DHT22;30950;53.086;21.576;2024-02-21T09:07:46;6.70;99.90
45207;DHT22;30950;53.086;21.576;2024-02-21T09:10:13;6.70;99.90
45207;DHT22;30950;53.086;21.576;2024-02-21T09:12:41;6.70;99.90
45207;DHT22;30950;53.086;21.576;2024-02-21T09:15:08;6.70;99.90
45207;DHT22;30950;53.086;21.576;2024-02-21T09:17:35;6.70;99.90
45207;DHT22;30950;53.086;21.576;2024-02-21T09:20:03;6.80;99.90
45207;DHT22;30950;53.086;21.576;2024-02-21T09:22:31;6.80;99.90
45207;DHT22;30950;53.086;21.576;2024-02-21T09:25:01;6.90;99.90
45207;DHT22;30950;53.086;21.576;2024-02-21T09:27:30;6.90;99.90
45207;DHT22;30950;53.086;21.576;2024-02-21T09:29:58;7.10;99.90
45207;DHT22;30950;53.086;21.576;2024-02-21T09:32:25;6.90;99.90
45207;DHT22;30950;53.086;21.576;2024-02-21T09:34:53;7.00;99.90
45207;DHT22;30950;53.086;21.576;2024-02-21T09:37:26;7.00;99.90
45207;DHT22;30950;53.086;21.576;2024-02-21T09:39:53;7.00;99.90
45207;DHT22;30950;53.086;21.576;2024-02-21T09:42:21;7.10;99.90
45207;DHT22;30950;53.086;21.576;2024-02-21T09:44:50;7.10;99.90
45207;DHT22;30950;53.086;21.576;2024-02-21T09:49:48;7.10;99.90
45207;DHT22;30950;53.086;21.576;2024-02-21T09:52:15;7.10;99.90
45207;DHT22;30950;53.086;21.576;2024-02-21T09:54:44;7.10;99.90
45207;DHT22;30950;53.086;21.576;2024-02-21T09:57:12;7.10;99.90
45207;DHT22;30950;53.086;21.576;2024-02-21T09:59:40;7.10;99.90
45207;DHT22;30950;53.086;21.576;2024-02-21T10:02:09;7.10;99.90
45207;DHT22;30950;53.086;21.576;2024-02-21T10:04:39;7.20;99.90
45207;DHT22;30950;53.086;21.576;2024-02-21T10:07:07;7.10;99.90
45207;DHT22;30950;53.086;21.576;2024-02-21T10:09:34;7.30;99.90
45207;DHT22;30950;53.086;21.576;2024-02-21T10:12:11;7.30;99.90
45207;DHT22;30950;53.086;21.576;2024-02-21T10:14:40;7.40;99.90
45207;DHT22;30950;53.086;21.576;2024-02-21T10:17:08;7.40;99.90
45207;DHT22;30950;53.086;21.576;2024-02-21T10:19:41;7.40;99.90
45207;DHT22;30950;53.086;21.576;2024-02-21T10:22:09;7.50;99.90
45207;DHT22;30950;53.086;21.576;2024-02-21T10:24:37;7.50;99.90
45207;DHT22;30950;53.086;21.576;2024-02-21T10:27:13;7.50;99.90
45207;DHT22;30950;53.086;21.576;2024-02-21T10:29:41;7.60;99.90
45207;DHT22;30950;53.086;21.576;2024-02-21T10:32:10;7.60;99.90
45207;DHT22;30950;53.086;21.576;2024-02-21T10:34:38;7.70;99.90
45207;DHT22;30950;53.086;21.576;2024-02-21T10:37:09;7.70;99.90
45207;DHT22;30950;53.086;21.576;2024-02-21T10:39:41;7.70;99.90
45207;DHT22;30950;53.086;21.576;2024-02-21T10:42:10;7.60;99.90
45207;DHT22;30950;53.086;21.576;2024-02-21T10:44:38;7.50;99.90
45207;DHT22;30950;53.086;21.576;2024-02-21T10:47:08;7.50;99.90
45207;DHT22;30950;53.086;21.576;2024-02-21T10:49:37;7.40;99.90
45207;DHT22;30950;53.086;21.576;2024-02-21T10:52:26;7.40;99.90
45207;DHT22;30950;53.086;21.576;2024-02-21T10:54:58;7.30;99.90
45207;DHT22;30950;53.086;21.576;2024-02-21T10:57:28;7.30;99.90
45207;DHT22;30950;53.086;21.576;2024-02-21T10:59:56;8.80;99.90
45207;DHT22;30950;53.086;21.576;2024-02-21T11:02:26;7.20;99.90
45207;DHT22;30950;53.086;21.576;2024-02-21T11:04:55;7.20;99.90
45207;DHT22;30950;53.086;21.576;2024-02-21T11:07:23;7.10;99.90
45207;DHT22;30950;53.086;21.576;2024-02-21T11:09:51;7.20;99.90
45207;DHT22;30950;53.086;21.576;2024-02-21T11:12:23;7.10;99.90
45207;DHT22;30950;53.086;21.576;2024-02-21T11:14:50;7.10;99.90
45207;DHT22;30950;53.086;21.576;2024-02-21T11:17:18;7.20;99.90
45207;DHT22;30950;53.086;21.576;2024-02-21T11:19:46;7.20;99.90
45207;DHT22;30950;53.086;21.576;2024-02-21T11:22:17;7.30;99.90
45207;DHT22;30950;53.086;21.576;2024-02-21T11:24:45;7.30;99.90
45207;DHT22;30950;53.086;21.576;2024-02-21T11:27:14;7.40;99.90
45207;DHT22;30950;53.086;21.576;2024-02-21T11:29:48;7.40;99.90
45207;DHT22;30950;53.086;21.576;2024-02-21T11:32:19;7.40;99.90
45207;DHT22;30950;53.086;21.576;2024-02-21T11:34:56;7.40;99.90
45207;DHT22;30950;53.086;21.576;2024-02-21T11:37:29;7.50;99.90
45207;DHT22;30950;53.086;21.576;2024-02-21T11:39:57;7.50;99.90
45207;DHT22;30950;53.086;21.576;2024-02-21T11:42:24;7.40;99.90
45207;DHT22;30950;53.086;21.576;2024-02-21T11:44:52;7.40;99.90
45207;DHT22;30950;53.086;21.576;2024-02-21T11:47:20;7.50;99.90
45207;DHT22;30950;53.086;21.576;2024-02-21T11:49:47;7.40;99.90
45207;DHT22;30950;53.086;21.576;2024-02-21T11:52:21;7.40;99.90
45207;DHT22;30950;53.086;21.576;2024-02-21T11:54:49;7.40;99.90
45207;DHT22;30950;53.086;21.576;2024-02-21T11:57:17;7.30;99.90
45207;DHT22;30950;53.086;21.576;2024-02-21T11:59:44;7.30;99.90
45207;DHT22;30950;53.086;21.576;2024-02-21T12:02:12;7.20;99.90
45207;DHT22;30950;53.086;21.576;2024-02-21T12:04:39;7.20;99.90
45207;DHT22;30950;53.086;21.576;2024-02-21T12:07:07;7.20;99.90
45207;DHT22;30950;53.086;21.576;2024-02-21T12:09:34;7.20;99.90
45207;DHT22;30950;53.086;21.576;2024-02-21T12:12:03;7.20;99.90
45207;DHT22;30950;53.086;21.576;2024-02-21T12:14:31;7.20;99.90
45207;DHT22;30950;53.086;21.576;2024-02-21T12:16:59;7.20;99.90
45207;DHT22;30950;53.086;21.576;2024-02-21T12:19:30;7.30;99.90
45207;DHT22;30950;53.086;21.576;2024-02-21T12:21:59;7.20;99.90
45207;DHT22;30950;53.086;21.576;2024-02-21T12:24:27;7.20;99.90
45207;DHT22;30950;53.086;21.576;2024-02-21T12:26:55;7.20;99.90
45207;DHT22;30950;53.086;21.576;2024-02-21T12:29:25;7.20;99.90
45207;DHT22;30950;53.086;21.576;2024-02-21T12:31:53;7.10;99.90
45207;DHT22;30950;53.086;21.576;2024-02-21T12:34:23;7.10;99.90
45207;DHT22;30950;53.086;21.576;2024-02-21T12:37:05;7.20;99.90
45207;DHT22;30950;53.086;21.576;2024-02-21T12:39:32;7.10;99.90
45207;DHT22;30950;53.086;21.576;2024-02-21T12:42:00;8.50;99.90
45207;DHT22;30950;53.086;21.576;2024-02-21T12:44:27;7.10;99.90
45207;DHT22;30950;53.086;21.576;2024-02-21T12:46:55;7.10;99.90
45207;DHT22;30950;53.086;21.576;2024-02-21T12:49:22;7.10;99.90
45207;DHT22;30950;53.086;21.576;2024-02-21T12:51:51;7.10;99.90
45207;DHT22;30950;53.086;21.576;2024-02-21T12:54:18;7.10;99.90
45207;DHT22;30950;53.086;21.576;2024-02-21T12:56:45;7.10;99.90
45207;DHT22;30950;53.086;21.576;2024-02-21T12:59:13;7.10;99.90
45207;DHT22;30950;53.086;21.576;2024-02-21T13:01:41;7.10;99.90
45207;DHT22;30950;53.086;21.576;2024-02-21T13:04:08;7.10;99.90
45207;DHT22;30950;53.086;21.576;2024-02-21T13:06:36;7.10;99.90
45207;DHT22;30950;53.086;21.576;2024-02-21T13:09:03;7.10;99.90
45207;DHT22;30950;53.086;21.576;2024-02-21T13:11:34;7.10;99.90
45207;DHT22;30950;53.086;21.576;2024-02-21T13:14:02;7.10;99.90
45207;DHT22;30950;53.086;21.576;2024-02-21T13:16:29;7.10;99.90
45207;DHT22;30950;53.086;21.576;2024-02-21T13:18:57;7.10;99.90
45207;DHT22;30950;53.086;21.576;2024-02-21T13:21:24;7.20;99.90
45207;DHT22;30950;53.086;21.576;2024-02-21T13:23:52;7.10;99.90
45207;DHT22;30950;53.086;21.576;2024-02-21T13:26:20;7.20;99.90
45207;DHT22;30950;53.086;21.576;2024-02-21T13:28:47;7.20;99.90
45207;DHT22;30950;53.086;21.576;2024-02-21T13:31:15;7.20;99.90
45207;DHT22;30950;53.086;21.576;2024-02-21T13:33:43;7.20;99.90
45207;DHT22;30950;53.086;21.576;2024-02-21T13:36:14;7.20;99.90
45207;DHT22;30950;53.086;21.576;2024-02-21T13:38:41;7.20;99.90
45207;DHT22;30950;53.086;21.576;2024-02-21T13:41:08;7.20;99.90
45207;DHT22;30950;53.086;21.576;2024-02-21T13:43:36;7.20;99.90
45207;DHT22;30950;53.086;21.576;2024-02-21T13:46:03;7.20;99.90
45207;DHT22;30950;53.086;21.576;2024-02-21T13:48:32;7.20;99.90
45207;DHT22;30950;53.086;21.576;2024-02-21T13:51:00;7.20;99.90
45207;DHT22;30950;53.086;21.576;2024-02-21T13:53:29;7.20;99.90
45207;DHT22;30950;53.086;21.576;2024-02-21T13:55:56;7.20;99.90
45207;DHT22;30950;53.086;21.576;2024-02-21T13:58:23;7.10;99.90
45207;DHT22;30950;53.086;21.576;2024-02-21T14:00:52;7.20;99.90
45207;DHT22;30950;53.086;21.576;2024-02-21T14:03:19;7.10;99.90
45207;DHT22;30950;53.086;21.576;2024-02-21T14:05:47;7.10;99.90
45207;DHT22;30950;53.086;21.576;2024-02-21T14:08:18;7.20;99.90
45207;DHT22;30950;53.086;21.576;2024-02-21T14:10:45;7.20;99.90
45207;DHT22;30950;53.086;21.576;2024-02-21T14:13:12;7.20;99.90
45207;DHT22;30950;53.086;21.576;2024-02-21T14:15:41;7.20;99.90
45207;DHT22;30950;53.086;21.576;2024-02-21T14:18:10;7.20;99.90
45207;DHT22;30950;53.086;21.576;2024-02-21T14:20:38;7.20;99.90
45207;DHT22;30950;53.086;21.576;2024-02-21T14:23:05;7.10;99.90
45207;DHT22;30950;53.086;21.576;2024-02-21T14:25:33;7.10;99.90
45207;DHT22;30950;53.086;21.576;2024-02-21T14:28:00;7.10;99.90
45207;DHT22;30950;53.086;21.576;2024-02-21T14:30:28;7.20;99.90
45207;DHT22;30950;53.086;21.576;2024-02-21T14:32:55;7.20;99.90
45207;DHT22;30950;53.086;21.576;2024-02-21T14:35:22;7.10;99.90
45207;DHT22;30950;53.086;21.576;2024-02-21T14:37:51;7.10;99.90
45207;DHT22;30950;53.086;21.576;2024-02-21T14:40:20;7.10;99.90
45207;DHT22;30950;53.086;21.576;2024-02-21T14:42:48;7.10;99.90
45207;DHT22;30950;53.086;21.576;2024-02-21T14:45:15;7.10;99.90
45207;DHT22;30950;53.086;21.576;2024-02-21T14:47:42;7.20;99.90
45207;DHT22;30950;53.086;21.576;2024-02-21T14:50:10;7.10;99.90
45207;DHT22;30950;53.086;21.576;2024-02-21T14:52:37;7.10;99.90
45207;DHT22;30950;53.086;21.576;2024-02-21T14:55:05;7.10;99.90
45207;DHT22;30950;53.086;21.576;2024-02-21T14:57:32;7.10;99.90
45207;DHT22;30950;53.086;21.576;2024-02-21T15:00:00;7.10;99.90
45207;DHT22;30950;53.086;21.576;2024-02-21T15:02:28;7.10;99.90
45207;DHT22;30950;53.086;21.576;2024-02-21T15:04:56;7.80;99.90
45207;DHT22;30950;53.086;21.576;2024-02-21T15:07:23;7.10;99.90
45207;DHT22;30950;53.086;21.576;2024-02-21T15:09:52;7.10;99.90
45207;DHT22;30950;53.086;21.576;2024-02-21T15:12:19;7.10;99.90
45207;DHT22;30950;53.086;21.576;2024-02-21T15:14:47;7.00;99.90
45207;DHT22;30950;53.086;21.576;2024-02-21T15:17:14;7.00;99.90
45207;DHT22;30950;53.086;21.576;2024-02-21T15:19:43;7.00;99.90
45207;DHT22;30950;53.086;21.576;2024-02-21T15:22:11;7.00;99.90
45207;DHT22;30950;53.086;21.576;2024-02-21T15:24:39;7.10;99.90
45207;DHT22;30950;53.086;21.576;2024-02-21T15:27:06;7.00;99.90
45207;DHT22;30950;53.086;21.576;2024-02-21T15:29:35;7.00;99.90
45207;DHT22;30950;53.086;21.576;2024-02-21T15:32:03;7.00;99.90
45207;DHT22;30950;53.086;21.576;2024-02-21T15:34:31;7.00;99.90
45207;DHT22;30950;53.086;21.576;2024-02-21T15:36:58;7.00;99.90